createdAt,value
2023-01-29T00:00:27.225Z,102876.38
2023-01-29T00:03:12.513Z,102861.66
2023-01-29T00:05:57.926Z,102855.63
2023-01-29T00:08:43.222Z,102857.25
2023-01-29T00:11:28.733Z,102853.75
2023-01-29T00:14:14.340Z,102853.75
2023-01-29T00:16:59.588Z,102849.28
2023-01-29T00:19:44.883Z,102855.38
2023-01-29T00:22:30.811Z,102855.38
2023-01-29T00:25:16.293Z,102846.69
2023-01-29T00:28:01.594Z,102854.44
2023-01-29T00:30:46.963Z,102848.41
2023-01-29T00:33:32.355Z,102853.56
2023-01-29T00:36:19.722Z,102862.28
2023-01-29T00:39:11.055Z,102865.00
2023-01-29T00:42:14.716Z,102863.38
2023-01-29T00:45:01.539Z,102866.75
2023-01-29T00:47:46.704Z,102863.38
2023-01-29T00:50:32.806Z,102861.59
2023-01-29T00:53:18.443Z,102856.41
2023-01-29T00:56:03.983Z,102850.38
2023-01-29T00:58:49.521Z,102852.06
2023-01-29T01:01:53.235Z,102845.19
2023-01-29T01:04:38.674Z,102842.69
2023-01-29T01:07:24.319Z,102840.03
2023-01-29T01:10:42.048Z,102833.16
2023-01-29T01:13:28.227Z,102833.16
2023-01-29T01:16:15.808Z,102822.75
2023-01-29T01:19:01.211Z,102835.66
2023-01-29T01:21:48.379Z,102828.81
2023-01-29T01:24:34.021Z,102831.41
2023-01-29T01:27:19.731Z,102830.50
2023-01-29T01:30:06.507Z,102824.44
2023-01-29T01:32:52.692Z,102813.03
2023-01-29T01:35:38.882Z,102809.31
2023-01-29T01:38:24.182Z,102790.84
2023-01-29T01:41:09.452Z,102795.66
2023-01-29T01:43:58.757Z,102796.28
2023-01-29T01:46:44.407Z,102789.53
2023-01-29T01:49:30.115Z,102787.81
2023-01-29T01:52:17.771Z,102784.34
2023-01-29T01:55:04.235Z,102793.88
2023-01-29T01:57:55.157Z,102783.75
2023-01-29T02:00:40.875Z,102794.41
2023-01-29T02:03:49.064Z,102793.72
2023-01-29T02:06:54.778Z,102789.59
2023-01-29T02:09:46.643Z,102788.00
2023-01-29T02:12:33.071Z,102794.84
2023-01-29T02:15:18.736Z,102794.75
2023-01-29T02:18:04.026Z,102798.25
2023-01-29T02:21:07.332Z,102798.25
2023-01-29T02:24:00.749Z,102786.13
2023-01-29T02:27:13.910Z,102787.81
2023-01-29T02:30:14.606Z,102773.13
2023-01-29T02:33:09.467Z,102764.28
2023-01-29T02:36:32.820Z,102766.09
2023-01-29T02:39:49.346Z,102751.28
2023-01-29T02:42:44.230Z,102740.06
2023-01-29T02:45:42.092Z,102736.59
2023-01-29T02:48:38.904Z,102737.41
2023-01-29T02:51:37.669Z,102730.63
2023-01-29T02:54:52.211Z,102722.88
2023-01-29T02:57:40.846Z,102727.25
2023-01-29T03:00:30.477Z,102712.63
2023-01-29T03:03:25.095Z,102710.13
2023-01-29T03:06:20.769Z,102712.72
2023-01-29T03:09:13.207Z,102713.44
2023-01-29T03:12:19.960Z,102715.13
2023-01-29T03:15:17.096Z,102712.44
2023-01-29T03:18:20.192Z,102706.94
2023-01-29T03:21:31.823Z,102706.78
2023-01-29T03:24:59.523Z,102702.31
2023-01-29T03:28:12.764Z,102699.56
2023-01-29T03:31:28.477Z,102697.69
2023-01-29T03:34:37.102Z,102692.28
2023-01-29T03:37:33.080Z,102693.88
2023-01-29T03:40:19.018Z,102699.94
2023-01-29T03:43:14.942Z,102687.91
2023-01-29T03:46:11.806Z,102675.88
2023-01-29T03:49:09.410Z,102673.28
2023-01-29T03:51:54.785Z,102666.38
2023-01-29T03:55:07.042Z,102658.72
2023-01-29T03:58:19.446Z,102644.09
2023-01-29T04:01:11.093Z,102644.97
2023-01-29T04:04:09.427Z,102634.56
2023-01-29T04:07:00.761Z,102620.44
2023-01-29T04:09:54.985Z,102617.97
2023-01-29T04:13:04.265Z,102609.50
2023-01-29T04:15:56.755Z,102604.63
2023-01-29T04:18:59.681Z,102607.75
2023-01-29T04:21:53.476Z,102607.75
2023-01-29T04:24:39.078Z,102600.81
2023-01-29T04:27:38.239Z,102592.72
2023-01-29T04:30:39.844Z,102596.63
2023-01-29T04:33:40.841Z,102584.91
2023-01-29T04:36:41.370Z,102581.88
2023-01-29T04:39:48.818Z,102588.38
2023-01-29T04:42:49.223Z,102587.19
2023-01-29T04:46:12.419Z,102588.91
2023-01-29T04:49:14.946Z,102577.66
2023-01-29T04:52:07.521Z,102566.91
2023-01-29T04:55:21.111Z,102572.78
2023-01-29T04:58:34.419Z,102577.94
2023-01-29T05:01:22.488Z,102580.50
2023-01-29T05:04:14.183Z,102573.78
2023-01-29T05:07:04.819Z,102573.88
2023-01-29T05:09:51.617Z,102572.25
2023-01-29T05:12:38.609Z,102569.59
2023-01-29T05:15:29.346Z,102567.28
2023-01-29T05:18:14.871Z,102561.16
2023-01-29T05:21:05.170Z,102558.03
2023-01-29T05:24:11.325Z,102563.38
2023-01-29T05:27:15.330Z,102557.59
2023-01-29T05:30:00.896Z,102542.56
2023-01-29T05:32:46.372Z,102541.22
2023-01-29T05:35:32.066Z,102543.97
2023-01-29T05:38:18.819Z,102538.19
2023-01-29T05:41:04.263Z,102538.78
2023-01-29T05:43:49.540Z,102540.91
2023-01-29T05:46:35.039Z,102534.50
2023-01-29T05:49:20.809Z,102540.88
2023-01-29T05:52:06.230Z,102535.25
2023-01-29T05:54:51.635Z,102527.84
2023-01-29T05:57:37.118Z,102531.56
2023-01-29T06:00:23.426Z,102514.63
2023-01-29T06:03:08.637Z,102518.25
2023-01-29T06:05:53.948Z,102520.13
2023-01-29T06:08:39.978Z,102519.41
2023-01-29T06:11:25.734Z,102526.38
2023-01-29T06:14:11.401Z,102507.47
2023-01-29T06:16:56.783Z,102511.75
2023-01-29T06:19:42.133Z,102509.16
2023-01-29T06:22:27.610Z,102514.31
2023-01-29T06:25:12.954Z,102521.19
2023-01-29T06:27:59.529Z,102515.19
2023-01-29T06:30:45.384Z,102508.38
2023-01-29T06:33:30.910Z,102521.34
2023-01-29T06:36:16.610Z,102516.19
2023-01-29T06:39:02.105Z,102514.50
2023-01-29T06:41:47.422Z,102515.38
2023-01-29T06:44:32.695Z,102517.94
2023-01-29T06:47:18.127Z,102518.06
2023-01-29T06:50:04.264Z,102511.97
2023-01-29T06:52:49.876Z,102516.44
2023-01-29T06:55:35.412Z,102512.16
2023-01-29T06:58:21.234Z,102514.88
2023-01-29T07:01:08.734Z,102508.03
2023-01-29T07:03:54.148Z,102512.50
2023-01-29T07:06:39.983Z,102505.63
2023-01-29T07:09:25.274Z,102505.63
2023-01-29T07:12:11.469Z,102499.66
2023-01-29T07:14:56.939Z,102497.94
2023-01-29T07:17:42.407Z,102495.44
2023-01-29T07:20:29.916Z,102487.63
2023-01-29T07:23:15.938Z,102478.09
2023-01-29T07:26:03.325Z,102473.75
2023-01-29T07:28:48.822Z,102474.63
2023-01-29T07:31:34.337Z,102477.13
2023-01-29T07:34:19.751Z,102474.38
2023-01-29T07:37:06.306Z,102478.72
2023-01-29T07:39:52.007Z,102480.66
2023-01-29T07:42:39.130Z,102477.28
2023-01-29T07:45:24.684Z,102468.66
2023-01-29T07:48:13.521Z,102468.75
2023-01-29T07:50:59.204Z,102462.66
2023-01-29T07:53:45.177Z,102466.22
2023-01-29T07:56:30.635Z,102473.25
2023-01-29T07:59:16.340Z,102459.44
2023-01-29T08:02:02.024Z,102465.66
2023-01-29T08:04:47.298Z,102471.78
2023-01-29T08:07:32.645Z,102464.19
2023-01-29T08:10:18.528Z,102460.00
2023-01-29T08:13:05.407Z,102460.97
2023-01-29T08:15:50.853Z,102469.78
2023-01-29T08:18:37.876Z,102466.63
2023-01-29T08:21:23.122Z,102465.88
2023-01-29T08:24:08.629Z,102463.44
2023-01-29T08:26:54.118Z,102465.38
2023-01-29T08:29:39.479Z,102462.94
2023-01-29T08:32:24.865Z,102469.25
2023-01-29T08:35:10.122Z,102473.75
2023-01-29T08:38:00.359Z,102467.88
2023-01-29T08:40:46.217Z,102473.19
2023-01-29T08:43:31.822Z,102477.63
2023-01-29T08:46:17.219Z,102479.44
2023-01-29T08:49:02.851Z,102480.50
2023-01-29T08:51:48.390Z,102486.63
2023-01-29T08:54:33.793Z,102480.72
2023-01-29T08:57:19.335Z,102473.03
2023-01-29T09:00:06.732Z,102476.69
2023-01-29T09:02:52.592Z,102470.75
2023-01-29T09:05:40.417Z,102470.09
2023-01-29T09:08:25.770Z,102467.66
2023-01-29T09:11:11.652Z,102474.69
2023-01-29T09:13:56.897Z,102478.31
2023-01-29T09:16:42.380Z,102470.72
2023-01-29T09:19:27.621Z,102464.88
2023-01-29T09:22:13.105Z,102466.88
2023-01-29T09:24:59.524Z,102471.28
2023-01-29T09:27:44.817Z,102474.06
2023-01-29T09:30:30.394Z,102473.34
2023-01-29T09:33:15.921Z,102474.34
2023-01-29T09:36:03.667Z,102470.19
2023-01-29T09:38:49.314Z,102455.56
2023-01-29T09:41:49.504Z,102468.50
2023-01-29T09:44:58.486Z,102461.69
2023-01-29T09:47:44.876Z,102467.72
2023-01-29T09:50:40.120Z,102470.50
2023-01-29T09:53:52.208Z,102474.03
2023-01-29T09:56:37.553Z,102472.38
2023-01-29T09:59:27.325Z,102470.63
2023-01-29T10:02:28.121Z,102467.22
2023-01-29T10:05:24.781Z,102463.81
2023-01-29T10:08:30.722Z,102459.53
2023-01-29T10:11:31.453Z,102462.19
2023-01-29T10:14:42.491Z,102462.19
2023-01-29T10:17:30.892Z,102462.41
2023-01-29T10:20:37.990Z,102456.31
2023-01-29T10:23:26.315Z,102466.84
2023-01-29T10:26:13.512Z,102458.25
2023-01-29T10:29:01.503Z,102455.06
2023-01-29T10:31:55.435Z,102451.78
2023-01-29T10:35:00.533Z,102446.69
2023-01-29T10:37:46.357Z,102448.75
2023-01-29T10:40:47.048Z,102447.25
2023-01-29T10:43:54.275Z,102439.00
2023-01-29T10:46:58.017Z,102430.34
2023-01-29T10:50:06.148Z,102430.34
2023-01-29T10:53:04.089Z,102425.31
2023-01-29T10:56:13.925Z,102428.03
2023-01-29T10:59:37.328Z,102414.25
2023-01-29T11:02:22.931Z,102416.09
2023-01-29T11:05:24.943Z,102424.13
2023-01-29T11:08:18.179Z,102413.94
2023-01-29T11:11:21.975Z,102418.22
2023-01-29T11:14:17.076Z,102409.63
2023-01-29T11:17:02.902Z,102414.13
2023-01-29T11:19:51.408Z,102410.56
2023-01-29T11:22:37.067Z,102406.28
2023-01-29T11:25:22.806Z,102395.16
2023-01-29T11:28:10.697Z,102387.25
2023-01-29T11:30:57.774Z,102385.63
2023-01-29T11:33:44.182Z,102377.97
2023-01-29T11:36:38.137Z,102375.53
2023-01-29T11:39:25.776Z,102365.31
2023-01-29T11:42:20.414Z,102369.06
2023-01-29T11:45:27.545Z,102364.13
2023-01-29T11:48:27.361Z,102350.00
2023-01-29T11:51:22.620Z,102346.16
2023-01-29T11:54:17.767Z,102337.81
2023-01-29T11:57:04.545Z,102321.78
2023-01-29T11:59:52.296Z,102312.53
2023-01-29T12:02:44.168Z,102296.44
2023-01-29T12:05:29.774Z,102298.50
2023-01-29T12:08:18.528Z,102297.00
2023-01-29T12:11:14.751Z,102285.16
2023-01-29T12:14:03.296Z,102273.34
2023-01-29T12:17:00.818Z,102269.97
2023-01-29T12:20:22.394Z,102259.75
2023-01-29T12:23:48.332Z,102251.47
2023-01-29T12:26:43.306Z,102230.94
2023-01-29T12:29:44.470Z,102225.16
2023-01-29T12:32:51.532Z,102215.72
2023-01-29T12:35:50.712Z,102207.34
2023-01-29T12:38:37.289Z,102212.94
2023-01-29T12:41:41.826Z,102194.16
2023-01-29T12:44:30.224Z,102196.31
2023-01-29T12:47:41.366Z,102190.56
2023-01-29T12:50:35.565Z,102177.81
2023-01-29T12:53:29.935Z,102177.28
2023-01-29T12:56:26.888Z,102163.69
2023-01-29T12:59:35.601Z,102165.63
2023-01-29T13:02:40.844Z,102157.97
2023-01-29T13:05:36.791Z,102143.44
2023-01-29T13:08:30.787Z,102143.66
2023-01-29T13:11:39.525Z,102122.19
2023-01-29T13:14:56.163Z,102119.75
2023-01-29T13:17:51.172Z,102111.47
2023-01-29T13:20:38.877Z,102097.59
2023-01-29T13:23:51.910Z,102087.22
2023-01-29T13:26:37.861Z,102086.31
2023-01-29T13:29:26.921Z,102073.97
2023-01-29T13:32:25.066Z,102078.22
2023-01-29T13:35:15.386Z,102055.63
2023-01-29T13:38:00.985Z,102063.59
2023-01-29T13:40:50.942Z,102063.94
2023-01-29T13:43:41.393Z,102063.56
2023-01-29T13:46:27.032Z,102042.03
2023-01-29T13:49:35.752Z,102032.66
2023-01-29T13:52:27.193Z,102014.31
2023-01-29T13:55:15.930Z,102034.81
2023-01-29T13:58:28.672Z,102014.56
2023-01-29T14:01:14.420Z,102015.31
2023-01-29T14:04:07.301Z,102002.28
2023-01-29T14:06:57.477Z,102013.91
2023-01-29T14:09:42.730Z,102009.69
2023-01-29T14:12:39.293Z,101989.72
2023-01-29T14:15:30.846Z,101977.50
2023-01-29T14:18:21.415Z,101968.19
2023-01-29T14:21:31.787Z,101952.69
2023-01-29T14:24:24.979Z,101940.72
2023-01-29T14:27:21.767Z,101930.41
2023-01-29T14:30:09.979Z,101905.28
2023-01-29T14:32:55.853Z,101906.22
2023-01-29T14:35:50.680Z,101893.53
2023-01-29T14:38:36.895Z,101877.28
2023-01-29T14:41:22.483Z,101861.94
2023-01-29T14:44:45.230Z,101878.31
2023-01-29T14:47:33.413Z,101874.56
2023-01-29T14:50:18.892Z,101889.25
2023-01-29T14:53:42.967Z,101882.09
2023-01-29T14:56:34.932Z,101880.16
2023-01-29T14:59:30.521Z,101891.38
2023-01-29T15:02:21.921Z,101903.47
2023-01-29T15:05:13.794Z,101899.06
2023-01-29T15:08:23.892Z,101921.53
2023-01-29T15:11:51.432Z,101917.19
2023-01-29T15:14:44.596Z,101910.19
2023-01-29T15:17:39.626Z,101890.16
2023-01-29T15:20:34.599Z,101899.66
2023-01-29T15:23:25.911Z,101882.22
2023-01-29T15:26:17.393Z,101874.28
2023-01-29T15:29:04.939Z,101866.34
2023-01-29T15:31:51.059Z,101869.78
2023-01-29T15:34:36.708Z,101895.91
2023-01-29T15:37:31.582Z,101907.31
2023-01-29T15:40:19.240Z,101902.25
2023-01-29T15:43:21.610Z,101889.25
2023-01-29T15:46:10.629Z,101891.84
2023-01-29T15:49:00.263Z,101891.88
2023-01-29T15:51:47.511Z,101908.47
2023-01-29T15:54:34.931Z,101901.63
2023-01-29T15:57:27.389Z,101916.44
2023-01-29T16:00:39.314Z,101910.34
2023-01-29T16:03:30.884Z,101914.72
2023-01-29T16:06:17.073Z,101909.53
2023-01-29T16:09:04.149Z,101907.81
2023-01-29T16:11:50.725Z,101909.53
2023-01-29T16:14:36.568Z,101914.72
2023-01-29T16:17:22.116Z,101910.28
2023-01-29T16:20:31.760Z,101920.69
2023-01-29T16:23:21.716Z,101914.63
2023-01-29T16:26:13.493Z,101898.06
2023-01-29T16:29:05.431Z,101895.41
2023-01-29T16:31:54.091Z,101899.66
2023-01-29T16:34:45.635Z,101881.41
2023-01-29T16:37:36.491Z,101868.34
2023-01-29T16:40:52.647Z,101874.34
2023-01-29T16:43:44.257Z,101868.28
2023-01-29T16:46:46.176Z,101866.56
2023-01-29T16:49:31.658Z,101850.91
2023-01-29T16:52:23.198Z,101840.47
2023-01-29T16:55:11.672Z,101845.56
2023-01-29T16:57:57.022Z,101837.69
2023-01-29T17:01:03.528Z,101825.56
2023-01-29T17:04:01.079Z,101826.38
2023-01-29T17:06:50.128Z,101824.63
2023-01-29T17:09:38.034Z,101815.88
2023-01-29T17:12:26.303Z,101817.50
2023-01-29T17:15:33.898Z,101819.97
2023-01-29T17:18:24.217Z,101817.31
2023-01-29T17:21:09.403Z,101815.63
2023-01-29T17:23:54.864Z,101801.00
2023-01-29T17:26:40.825Z,101793.25
2023-01-29T17:29:30.085Z,101787.25
2023-01-29T17:32:20.045Z,101784.63
2023-01-29T17:35:06.728Z,101755.06
2023-01-29T17:37:51.865Z,101752.34
2023-01-29T17:40:41.908Z,101745.34
2023-01-29T17:43:27.346Z,101734.84
2023-01-29T17:46:18.142Z,101746.91
2023-01-29T17:49:04.630Z,101763.34
2023-01-29T17:51:52.259Z,101792.06
2023-01-29T17:54:37.679Z,101797.41
2023-01-29T17:57:23.235Z,101803.63
2023-01-29T18:00:25.077Z,101802.03
2023-01-29T18:03:10.403Z,101813.38
2023-01-29T18:05:55.654Z,101831.59
2023-01-29T18:08:41.152Z,101838.56
2023-01-29T18:11:27.073Z,101836.00
2023-01-29T18:14:13.975Z,101838.59
2023-01-29T18:17:00.042Z,101845.50
2023-01-29T18:19:45.273Z,101847.25
2023-01-29T18:22:30.687Z,101848.94
2023-01-29T18:25:16.503Z,101839.38
2023-01-29T18:28:04.270Z,101839.34
2023-01-29T18:30:49.758Z,101841.13
2023-01-29T18:33:35.877Z,101851.59
2023-01-29T18:36:21.207Z,101858.53
2023-01-29T18:39:06.623Z,101867.28
2023-01-29T18:41:51.955Z,101869.03
2023-01-29T18:44:37.185Z,101878.56
2023-01-29T18:47:23.780Z,101871.69
2023-01-29T18:50:11.083Z,101876.00
2023-01-29T18:52:57.157Z,101865.59
2023-01-29T18:55:42.390Z,101845.63
2023-01-29T18:58:35.421Z,101855.16
2023-01-29T19:01:22.930Z,101856.06
2023-01-29T19:04:08.398Z,101868.19
2023-01-29T19:06:53.975Z,101859.50
2023-01-29T19:09:40.711Z,101867.28
2023-01-29T19:12:26.248Z,101865.47
2023-01-29T19:15:11.837Z,101881.94
2023-01-29T19:17:57.544Z,101880.19
2023-01-29T19:20:42.808Z,101884.44
2023-01-29T19:23:28.141Z,101885.16
2023-01-29T19:26:13.749Z,101882.47
2023-01-29T19:28:59.861Z,101897.97
2023-01-29T19:31:46.132Z,101898.78
2023-01-29T19:34:31.353Z,101903.03
2023-01-29T19:37:16.632Z,101901.25
2023-01-29T19:40:02.099Z,101907.25
2023-01-29T19:42:48.623Z,101919.34
2023-01-29T19:45:37.331Z,101932.34
2023-01-29T19:48:35.907Z,101926.28
2023-01-29T19:51:23.388Z,101941.03
2023-01-29T19:54:09.235Z,101955.84
2023-01-29T19:56:55.341Z,101959.25
2023-01-29T19:59:41.035Z,101980.00
2023-01-29T20:02:27.993Z,101990.22
2023-01-29T20:05:17.247Z,101992.41
2023-01-29T20:08:02.960Z,101992.09
2023-01-29T20:10:49.480Z,101992.59
2023-01-29T20:13:34.920Z,101988.03
2023-01-29T20:16:21.745Z,101967.06
2023-01-29T20:19:14.095Z,101971.19
2023-01-29T20:22:00.593Z,101976.22
2023-01-29T20:24:45.916Z,101974.31
2023-01-29T20:27:31.422Z,101976.84
2023-01-29T20:30:17.815Z,101988.88
2023-01-29T20:33:04.367Z,101985.34
2023-01-29T20:35:56.758Z,101995.63
2023-01-29T20:38:42.544Z,101999.88
2023-01-29T20:41:29.253Z,102002.31
2023-01-29T20:44:14.908Z,101997.75
2023-01-29T20:47:02.675Z,101999.38
2023-01-29T20:49:47.928Z,102000.88
2023-01-29T20:52:33.258Z,102005.94
2023-01-29T20:55:18.608Z,102005.81
2023-01-29T20:58:06.447Z,102009.16
2023-01-29T21:00:52.578Z,102003.84
2023-01-29T21:03:39.440Z,102015.00
2023-01-29T21:06:25.596Z,102007.16
2023-01-29T21:09:11.164Z,102014.00
2023-01-29T21:11:56.702Z,102023.25
2023-01-29T21:14:42.159Z,102020.56
2023-01-29T21:17:28.221Z,102016.94
2023-01-29T21:20:14.086Z,102011.66
2023-01-29T21:22:59.728Z,102015.75
2023-01-29T21:25:45.352Z,102016.38
2023-01-29T21:28:31.208Z,102012.72
2023-01-29T21:31:17.773Z,102005.84
2023-01-29T21:34:04.769Z,102015.31
2023-01-29T21:36:50.431Z,102003.03
2023-01-29T21:39:35.850Z,101995.00
2023-01-29T21:42:39.618Z,101998.88
2023-01-29T21:45:25.363Z,102021.81
2023-01-29T21:48:11.978Z,102011.31
2023-01-29T21:50:57.537Z,102030.00
2023-01-29T21:53:42.963Z,102014.28
2023-01-29T21:56:28.262Z,102031.19
2023-01-29T21:59:13.608Z,102037.53
2023-01-29T22:02:00.167Z,102051.84
2023-01-29T22:04:45.328Z,102048.00
2023-01-29T22:07:30.843Z,102047.13
2023-01-29T22:10:18.396Z,102057.41
2023-01-29T22:13:04.630Z,102057.22
2023-01-29T22:15:55.121Z,102057.88
2023-01-29T22:18:40.570Z,102065.41
2023-01-29T22:21:25.836Z,102072.19
2023-01-29T22:24:11.322Z,102073.94
2023-01-29T22:26:56.772Z,102067.94
2023-01-29T22:29:42.154Z,102079.00
2023-01-29T22:32:28.071Z,102087.44
2023-01-29T22:35:13.703Z,102085.72
2023-01-29T22:37:58.989Z,102089.75
2023-01-29T22:40:49.867Z,102087.22
2023-01-29T22:43:35.537Z,102095.03
2023-01-29T22:46:21.019Z,102095.03
2023-01-29T22:49:06.341Z,102097.44
2023-01-29T22:52:10.032Z,102088.78
2023-01-29T22:54:55.819Z,102090.31
2023-01-29T22:57:41.263Z,102092.53
2023-01-29T23:00:26.856Z,102094.84
2023-01-29T23:03:12.504Z,102090.06
2023-01-29T23:05:57.705Z,102090.69
2023-01-29T23:08:43.448Z,102096.34
2023-01-29T23:11:29.143Z,102094.50
2023-01-29T23:14:14.532Z,102101.13
2023-01-29T23:16:59.773Z,102106.94
2023-01-29T23:19:44.932Z,102104.06
2023-01-29T23:22:30.208Z,102102.97
2023-01-29T23:25:15.540Z,102107.53
2023-01-29T23:28:01.233Z,102104.47
2023-01-29T23:30:48.008Z,102100.72
2023-01-29T23:33:33.451Z,102101.09
2023-01-29T23:36:18.741Z,102099.59
2023-01-29T23:39:04.712Z,102099.91
2023-01-29T23:41:50.430Z,102109.63
2023-01-29T23:44:35.938Z,102110.66
2023-01-29T23:47:21.209Z,102110.78
2023-01-29T23:50:07.260Z,102126.38
2023-01-29T23:52:52.707Z,102109.63
2023-01-29T23:55:38.287Z,102115.25
2023-01-29T23:58:23.849Z,102117.56
